createdAt,value
2018-09-08T00:00:09.815Z,1.90
2018-09-08T00:02:33.645Z,2.20
2018-09-08T00:04:57.481Z,2.07
2018-09-08T00:07:26.698Z,1.93
2018-09-08T00:09:50.522Z,1.90
2018-09-08T00:12:14.382Z,1.80
2018-09-08T00:14:37.406Z,1.90
2018-09-08T00:17:06.782Z,1.97
2018-09-08T00:19:35.875Z,2.07
2018-09-08T00:22:04.948Z,1.80
2018-09-08T00:24:34.144Z,1.90
2018-09-08T00:26:57.177Z,2.07
2018-09-08T00:29:25.436Z,2.23
2018-09-08T00:31:49.263Z,2.07
2018-09-08T00:34:13.174Z,2.00
2018-09-08T00:36:36.996Z,2.00
2018-09-08T00:39:00.800Z,1.73
2018-09-08T00:41:24.665Z,2.10
2018-09-08T00:43:48.515Z,2.30
2018-09-08T00:46:12.901Z,1.90
2018-09-08T00:48:36.885Z,2.00
2018-09-08T00:51:01.018Z,2.07
2018-09-08T00:53:24.927Z,2.30
2018-09-08T00:55:48.758Z,2.10
2018-09-08T00:58:12.720Z,2.13
2018-09-08T01:00:36.555Z,1.87
2018-09-08T01:03:00.467Z,1.90
2018-09-08T01:05:24.336Z,1.77
2018-09-08T01:07:48.187Z,2.07
2018-09-08T01:10:11.977Z,2.10
2018-09-08T01:12:35.848Z,2.40
2018-09-08T01:15:00.157Z,2.03
2018-09-08T01:17:24.424Z,1.90
2018-09-08T01:19:48.307Z,2.00
2018-09-08T01:22:12.134Z,1.70
2018-09-08T01:24:35.975Z,1.87
2018-09-08T01:26:59.833Z,1.70
2018-09-08T01:29:23.670Z,1.60
2018-09-08T01:31:47.633Z,1.60
2018-09-08T01:34:11.444Z,2.17
2018-09-08T01:36:35.268Z,1.80
2018-09-08T01:38:59.095Z,1.60
2018-09-08T01:41:22.965Z,1.70
2018-09-08T01:43:46.897Z,2.03
2018-09-08T01:46:10.718Z,2.00
2018-09-08T01:48:34.557Z,2.00
2018-09-08T01:50:58.409Z,1.63
2018-09-08T01:53:22.247Z,1.77
2018-09-08T01:55:46.197Z,1.80
2018-09-08T01:58:10.008Z,2.10
2018-09-08T02:00:33.843Z,1.90
2018-09-08T02:02:57.686Z,1.90
2018-09-08T02:05:21.483Z,1.77
2018-09-08T02:07:45.416Z,2.03
2018-09-08T02:10:09.229Z,2.07
2018-09-08T02:12:33.043Z,2.20
2018-09-08T02:14:56.885Z,2.23
2018-09-08T02:17:20.717Z,2.20
2018-09-08T02:19:44.554Z,1.93
2018-09-08T02:22:08.365Z,2.00
2018-09-08T02:24:32.276Z,1.97
2018-09-08T02:26:56.111Z,1.80
2018-09-08T02:29:19.911Z,1.70
2018-09-08T02:31:43.742Z,1.90
2018-09-08T02:34:07.536Z,1.90
2018-09-08T02:36:31.460Z,1.80
2018-09-08T02:38:55.286Z,1.80
2018-09-08T02:41:19.098Z,1.67
2018-09-08T02:43:42.961Z,1.70
2018-09-08T02:46:06.923Z,1.87
2018-09-08T02:48:30.869Z,1.87
2018-09-08T02:50:53.678Z,1.80
2018-09-08T02:53:16.484Z,1.73
2018-09-08T02:55:39.545Z,1.80
2018-09-08T02:58:02.344Z,1.80
2018-09-08T03:00:25.628Z,1.67
2018-09-08T03:02:48.459Z,1.90
2018-09-08T03:05:11.255Z,1.73
2018-09-08T03:07:34.179Z,1.30
2018-09-08T03:09:56.947Z,1.50
2018-09-08T03:12:19.755Z,1.70
2018-09-08T03:14:42.671Z,1.77
2018-09-08T03:17:05.952Z,1.60
2018-09-08T03:19:28.894Z,1.50
2018-09-08T03:21:51.899Z,1.47
2018-09-08T03:24:14.716Z,1.60
2018-09-08T03:26:37.605Z,1.57
2018-09-08T03:29:00.410Z,1.60
2018-09-08T03:31:23.232Z,1.70
2018-09-08T03:33:46.032Z,1.40
2018-09-08T03:36:08.825Z,1.33
2018-09-08T03:38:31.728Z,1.43
2018-09-08T03:40:54.591Z,1.70
2018-09-08T03:43:17.393Z,1.70
2018-09-08T03:45:40.206Z,1.60
2018-09-08T03:48:03.020Z,1.90
2018-09-08T03:50:25.922Z,1.93
2018-09-08T03:52:48.730Z,1.70
2018-09-08T03:55:11.535Z,1.73
2018-09-08T03:57:34.650Z,1.70
2018-09-08T03:59:57.450Z,1.63
2018-09-08T04:02:20.283Z,1.80
2018-09-08T04:04:44.133Z,1.60
2018-09-08T04:07:07.962Z,1.70
2018-09-08T04:09:31.869Z,1.73
2018-09-08T04:11:55.723Z,1.60
2018-09-08T04:14:19.542Z,1.70
2018-09-08T04:16:43.378Z,1.87
2018-09-08T04:19:07.493Z,1.87
2018-09-08T04:21:31.322Z,1.80
2018-09-08T04:23:55.157Z,1.80
2018-09-08T04:26:19.085Z,1.83
2018-09-08T04:28:42.942Z,1.90
2018-09-08T04:31:07.097Z,1.90
2018-09-08T04:33:30.908Z,1.80
2018-09-08T04:35:54.725Z,2.20
2018-09-08T04:38:18.559Z,1.80
2018-09-08T04:40:42.414Z,1.63
2018-09-08T04:43:06.232Z,1.80
2018-09-08T04:45:30.138Z,2.17
2018-09-08T04:47:53.999Z,2.57
2018-09-08T04:50:17.848Z,1.80
2018-09-08T04:52:41.819Z,1.63
2018-09-08T04:55:05.760Z,2.30
2018-09-08T04:57:29.684Z,2.47
2018-09-08T04:59:53.543Z,2.00
2018-09-08T05:02:17.360Z,2.00
2018-09-08T05:04:41.184Z,1.90
2018-09-08T05:07:04.994Z,2.20
2018-09-08T05:09:28.955Z,1.97
2018-09-08T05:11:52.816Z,2.03
2018-09-08T05:14:16.649Z,1.80
2018-09-08T05:16:40.592Z,2.00
2018-09-08T05:19:04.464Z,1.80
2018-09-08T05:21:28.377Z,2.13
2018-09-08T05:23:52.266Z,2.03
2018-09-08T05:26:16.068Z,2.17
2018-09-08T05:28:39.999Z,1.90
2018-09-08T05:31:03.827Z,1.83
2018-09-08T05:33:27.791Z,1.90
2018-09-08T05:35:51.624Z,1.80
2018-09-08T05:38:15.472Z,2.00
2018-09-08T05:40:39.635Z,2.10
2018-09-08T05:43:03.561Z,1.93
2018-09-08T05:45:27.411Z,2.30
2018-09-08T05:47:51.231Z,2.13
2018-09-08T05:50:15.067Z,2.10
2018-09-08T05:52:38.931Z,2.00
2018-09-08T05:55:02.856Z,2.20
2018-09-08T05:57:27.344Z,2.17
2018-09-08T05:59:51.167Z,3.20
2018-09-08T06:02:15.067Z,1.83
2018-09-08T06:04:38.925Z,2.23
2018-09-08T06:07:03.820Z,2.87
2018-09-08T06:09:27.680Z,2.23
2018-09-08T06:11:51.502Z,2.17
2018-09-08T06:14:15.429Z,3.90
2018-09-08T06:16:39.279Z,2.20
2018-09-08T06:19:03.164Z,2.10
2018-09-08T06:21:27.110Z,2.00
2018-09-08T06:23:50.955Z,1.80
2018-09-08T06:26:14.768Z,2.20
2018-09-08T06:28:38.797Z,1.80
2018-09-08T06:31:02.499Z,1.93
2018-09-08T06:33:26.439Z,2.07
2018-09-08T06:35:50.337Z,2.20
2018-09-08T06:38:14.208Z,2.43
2018-09-08T06:40:38.085Z,1.70
2018-09-08T06:43:01.917Z,1.77
2018-09-08T06:45:25.865Z,3.43
2018-09-08T06:47:49.762Z,2.03
2018-09-08T06:50:13.573Z,1.87
2018-09-08T06:52:37.438Z,1.60
2018-09-08T06:55:01.282Z,1.93
2018-09-08T06:57:25.206Z,2.00
2018-09-08T06:59:49.191Z,1.73
2018-09-08T07:02:13.151Z,2.30
2018-09-08T07:04:36.979Z,1.90
2018-09-08T07:07:00.852Z,1.50
2018-09-08T07:09:24.739Z,1.43
2018-09-08T07:11:48.606Z,1.60
2018-09-08T07:14:12.603Z,1.50
2018-09-08T07:16:36.427Z,1.50
2018-09-08T07:19:00.303Z,2.00
2018-09-08T07:21:24.207Z,1.73
2018-09-08T07:23:48.029Z,1.70
2018-09-08T07:26:11.902Z,2.00
2018-09-08T07:28:35.738Z,1.73
2018-09-08T07:30:59.731Z,1.80
2018-09-08T07:33:23.555Z,2.00
2018-09-08T07:35:47.383Z,1.63
2018-09-08T07:38:11.274Z,1.73
2018-09-08T07:40:35.152Z,1.80
2018-09-08T07:42:59.202Z,1.70
2018-09-08T07:45:23.052Z,1.70
2018-09-08T07:47:46.909Z,1.73
2018-09-08T07:50:10.785Z,2.40
2018-09-08T07:52:34.689Z,2.10
2018-09-08T07:54:58.660Z,2.10
2018-09-08T07:57:22.548Z,1.87
2018-09-08T07:59:46.358Z,2.00
2018-09-08T08:02:10.453Z,1.70
2018-09-08T08:04:34.287Z,1.83
2018-09-08T08:07:01.346Z,1.80
2018-09-08T08:09:25.260Z,1.70
2018-09-08T08:11:49.081Z,2.00
2018-09-08T08:14:13.043Z,2.03
2018-09-08T08:16:36.906Z,1.80
2018-09-08T08:19:00.770Z,1.90
2018-09-08T08:21:26.019Z,2.30
2018-09-08T08:23:49.862Z,2.10
2018-09-08T08:26:13.838Z,2.30
2018-09-08T08:31:08.350Z,1.87
2018-09-08T08:33:32.140Z,2.17
2018-09-08T08:35:56.033Z,2.40
2018-09-08T08:38:20.035Z,1.90
2018-09-08T08:40:43.860Z,1.93
2018-09-08T08:43:07.774Z,1.73
2018-09-08T08:45:31.575Z,1.80
2018-09-08T08:47:55.440Z,1.73
2018-09-08T08:50:30.631Z,1.80
2018-09-08T08:53:05.854Z,1.83
2018-09-08T08:55:29.685Z,2.00
2018-09-08T08:57:53.511Z,1.80
2018-09-08T09:00:17.445Z,1.97
2018-09-08T09:02:41.303Z,2.60
2018-09-08T09:05:05.187Z,2.33
2018-09-08T09:07:29.046Z,1.87
2018-09-08T09:09:52.958Z,1.63
2018-09-08T09:12:16.925Z,2.00
2018-09-08T09:14:41.204Z,2.03
2018-09-08T09:17:04.703Z,1.60
2018-09-08T09:19:41.731Z,1.70
2018-09-08T09:22:20.416Z,1.70
2018-09-08T09:24:50.914Z,1.77
2018-09-08T09:27:14.342Z,1.90
2018-09-08T09:29:38.233Z,1.40
2018-09-08T09:32:02.085Z,1.60
2018-09-08T09:34:25.905Z,2.23
2018-09-08T09:36:49.795Z,1.87
2018-09-08T09:39:13.659Z,1.47
2018-09-08T09:41:37.509Z,1.60
2018-09-08T09:44:01.862Z,2.13
2018-09-08T09:46:25.733Z,2.23
2018-09-08T09:48:49.644Z,1.40
2018-09-08T09:51:13.471Z,1.53
2018-09-08T09:53:37.293Z,1.80
2018-09-08T09:56:01.345Z,1.90
2018-09-08T09:58:25.191Z,1.50
2018-09-08T10:00:54.493Z,1.60
2018-09-08T10:03:18.307Z,1.60
2018-09-08T10:05:42.180Z,1.83
2018-09-08T10:08:06.048Z,1.80
2018-09-08T10:10:30.235Z,1.83
2018-09-08T10:12:54.083Z,1.53
2018-09-08T10:15:17.920Z,1.70
2018-09-08T10:17:42.671Z,1.90
2018-09-08T10:20:09.181Z,1.10
2018-09-08T10:22:33.128Z,1.80
2018-09-08T10:24:57.087Z,1.47
2018-09-08T10:27:21.221Z,1.53
2018-09-08T10:29:45.133Z,1.27
2018-09-08T10:32:09.399Z,1.20
2018-09-08T10:34:32.839Z,1.10
2018-09-08T10:36:56.698Z,1.00
2018-09-08T10:39:20.559Z,1.27
2018-09-08T10:41:44.507Z,1.00
2018-09-08T10:44:08.359Z,1.50
2018-09-08T10:46:32.290Z,1.37
2018-09-08T10:48:56.167Z,1.10
2018-09-08T10:51:59.833Z,1.40
2018-09-08T10:54:23.744Z,1.53
2018-09-08T10:56:47.603Z,1.30
2018-09-08T10:59:11.466Z,1.37
2018-09-08T11:01:35.452Z,1.10
2018-09-08T11:03:59.418Z,1.30
2018-09-08T11:06:23.350Z,1.20
2018-09-08T11:08:47.170Z,1.30
2018-09-08T11:11:11.094Z,1.00
2018-09-08T11:13:34.964Z,1.17
2018-09-08T11:15:58.788Z,1.10
2018-09-08T11:18:22.751Z,1.10
2018-09-08T11:20:46.616Z,1.30
2018-09-08T11:23:10.515Z,1.10
2018-09-08T11:25:34.380Z,1.07
2018-09-08T11:27:58.376Z,1.00
2018-09-08T11:30:22.236Z,1.00
2018-09-08T11:32:46.084Z,0.97
2018-09-08T11:35:09.955Z,1.00
2018-09-08T11:37:33.893Z,1.10
2018-09-08T11:39:57.765Z,1.10
2018-09-08T11:42:21.719Z,1.30
2018-09-08T11:44:45.823Z,1.20
2018-09-08T11:47:09.893Z,1.10
2018-09-08T11:49:33.913Z,1.10
2018-09-08T11:51:57.760Z,1.00
2018-09-08T11:54:21.584Z,1.30
2018-09-08T11:56:45.545Z,1.00
2018-09-08T11:59:09.423Z,1.20
2018-09-08T12:01:33.278Z,1.23
2018-09-08T12:03:57.215Z,1.00
2018-09-08T12:06:21.107Z,0.90
2018-09-08T12:08:45.023Z,0.97
2018-09-08T12:11:09.084Z,1.20
2018-09-08T12:13:32.964Z,1.03
2018-09-08T12:15:56.895Z,1.10
2018-09-08T12:18:21.735Z,1.10
2018-09-08T12:20:45.564Z,0.90
2018-09-08T12:23:09.660Z,1.07
2018-09-08T12:25:33.546Z,1.00
2018-09-08T12:27:57.542Z,1.00
2018-09-08T12:30:21.395Z,1.00
2018-09-08T12:32:45.421Z,1.17
2018-09-08T12:35:09.404Z,1.10
2018-09-08T12:37:33.234Z,1.00
2018-09-08T12:39:57.081Z,1.30
2018-09-08T12:42:20.982Z,1.00
2018-09-08T12:44:44.855Z,1.13
2018-09-08T12:47:08.820Z,1.00
2018-09-08T12:49:32.680Z,1.00
2018-09-08T12:51:56.621Z,1.03
2018-09-08T12:54:20.470Z,1.33
2018-09-08T12:56:44.440Z,1.00
2018-09-08T12:59:08.345Z,1.20
2018-09-08T13:01:32.180Z,1.13
2018-09-08T13:03:56.449Z,1.20
2018-09-08T13:06:20.337Z,1.00
2018-09-08T13:08:44.205Z,1.10
2018-09-08T13:11:08.091Z,1.00
2018-09-08T13:13:31.926Z,1.13
2018-09-08T13:15:55.757Z,0.80
2018-09-08T13:18:19.597Z,1.40
2018-09-08T13:20:43.567Z,1.00
2018-09-08T13:23:07.422Z,1.00
2018-09-08T13:25:31.265Z,0.87
2018-09-08T13:27:55.138Z,1.03
2018-09-08T13:30:18.947Z,1.00
2018-09-08T13:32:42.833Z,1.07
2018-09-08T13:35:06.702Z,1.10
2018-09-08T13:37:30.556Z,1.27
2018-09-08T13:39:54.797Z,1.07
2018-09-08T13:42:18.566Z,0.90
2018-09-08T13:44:42.419Z,1.00
2018-09-08T13:47:06.394Z,1.20
2018-09-08T13:49:30.176Z,0.90
2018-09-08T13:51:54.169Z,1.23
2018-09-08T13:54:18.174Z,1.00
2018-09-08T13:56:42.025Z,1.10
2018-09-08T13:59:05.878Z,0.80
2018-09-08T14:01:29.742Z,1.00
2018-09-08T14:03:53.729Z,0.90
2018-09-08T14:06:17.551Z,1.07
2018-09-08T14:08:41.428Z,1.47
2018-09-08T14:11:05.445Z,0.90
2018-09-08T14:13:29.288Z,1.00
2018-09-08T14:15:53.276Z,1.10
2018-09-08T14:18:17.161Z,0.90
2018-09-08T14:20:41.122Z,1.00
2018-09-08T14:23:05.120Z,1.07
2018-09-08T14:25:28.967Z,1.33
2018-09-08T14:27:52.952Z,1.20
2018-09-08T14:30:16.816Z,1.20
2018-09-08T14:32:40.667Z,1.30
2018-09-08T14:35:04.567Z,1.00
2018-09-08T14:37:28.427Z,1.10
2018-09-08T14:39:52.420Z,1.30
2018-09-08T14:42:16.265Z,1.23
2018-09-08T14:44:40.127Z,1.20
2018-09-08T14:47:04.065Z,1.00
2018-09-08T14:49:27.937Z,1.30
2018-09-08T14:51:51.801Z,1.00
2018-09-08T14:54:15.753Z,1.07
2018-09-08T14:56:39.617Z,1.20
2018-09-08T14:59:03.660Z,1.27
2018-09-08T15:01:27.512Z,0.90
2018-09-08T15:03:51.376Z,1.30
2018-09-08T15:06:15.434Z,1.30
2018-09-08T15:08:39.275Z,1.10
2018-09-08T15:11:03.209Z,1.20
2018-09-08T15:13:27.428Z,1.30
2018-09-08T15:15:51.454Z,1.10
2018-09-08T15:18:15.459Z,1.10
2018-09-08T15:20:39.304Z,1.20
2018-09-08T15:23:03.179Z,1.20
2018-09-08T15:25:27.138Z,1.40
2018-09-08T15:27:51.213Z,1.17
2018-09-08T15:30:15.107Z,1.20
2018-09-08T15:32:38.932Z,1.07
2018-09-08T15:35:02.816Z,1.30
2018-09-08T15:37:26.727Z,1.10
2018-09-08T15:39:50.570Z,1.53
2018-09-08T15:42:14.568Z,1.30
2018-09-08T15:44:38.344Z,1.20
2018-09-08T15:47:02.338Z,1.00
2018-09-08T15:49:26.217Z,1.20
2018-09-08T15:51:50.292Z,1.43
2018-09-08T15:54:14.491Z,1.30
2018-09-08T15:56:38.447Z,1.30
2018-09-08T15:59:02.317Z,1.23
2018-09-08T16:01:26.211Z,1.63
2018-09-08T16:03:50.053Z,1.20
2018-09-08T16:06:13.950Z,1.23
2018-09-08T16:08:37.790Z,1.53
2018-09-08T16:11:01.664Z,1.30
2018-09-08T16:13:25.663Z,1.30
2018-09-08T16:15:50.393Z,1.40
2018-09-08T16:18:14.281Z,1.13
2018-09-08T16:20:38.117Z,1.40
2018-09-08T16:23:02.028Z,1.40
2018-09-08T16:25:25.882Z,1.30
2018-09-08T16:27:49.753Z,1.13
2018-09-08T16:30:13.670Z,1.10
2018-09-08T16:32:37.528Z,1.00
2018-09-08T16:35:01.411Z,1.30
2018-09-08T16:37:25.412Z,1.30
2018-09-08T16:39:49.241Z,1.23
2018-09-08T16:42:13.223Z,1.47
2018-09-08T16:44:37.062Z,1.23
2018-09-08T16:47:00.915Z,1.20
2018-09-08T16:49:24.837Z,1.50
2018-09-08T16:51:48.700Z,1.30
2018-09-08T16:54:12.556Z,1.10
2018-09-08T16:56:36.460Z,1.40
2018-09-08T16:59:00.466Z,1.37
2018-09-08T17:01:24.654Z,1.27
2018-09-08T17:03:48.567Z,1.33
2018-09-08T17:06:12.388Z,1.43
2018-09-08T17:08:36.290Z,1.40
2018-09-08T17:11:00.285Z,1.90
2018-09-08T17:13:24.184Z,1.63
2018-09-08T17:15:48.276Z,1.40
2018-09-08T17:18:12.113Z,1.50
2018-09-08T17:20:36.099Z,1.80
2018-09-08T17:23:00.010Z,1.70
2018-09-08T17:25:24.053Z,2.20
2018-09-08T17:27:47.884Z,1.97
2018-09-08T17:30:11.727Z,1.50
2018-09-08T17:32:35.620Z,1.87
2018-09-08T17:34:59.465Z,2.30
2018-09-08T17:37:23.352Z,3.13
2018-09-08T17:39:48.275Z,2.50
2018-09-08T17:42:12.966Z,1.50
2018-09-08T17:44:36.870Z,2.07
2018-09-08T17:47:00.748Z,1.73
2018-09-08T17:49:24.698Z,2.10
2018-09-08T17:51:48.610Z,1.80
2018-09-08T17:54:12.462Z,1.80
2018-09-08T17:56:36.324Z,1.53
2018-09-08T17:59:00.251Z,2.20
2018-09-08T18:01:24.052Z,2.43
2018-09-08T18:03:54.995Z,1.90
2018-09-08T18:06:19.116Z,1.70
2018-09-08T18:08:43.031Z,2.30
2018-09-08T18:11:07.487Z,3.00
2018-09-08T18:13:31.359Z,2.00
2018-09-08T18:15:55.247Z,2.10
2018-09-08T18:18:19.178Z,2.60
2018-09-08T18:20:43.232Z,2.40
2018-09-08T18:23:07.164Z,2.00
2018-09-08T18:25:31.000Z,2.27
2018-09-08T18:27:54.890Z,1.87
2018-09-08T18:30:18.748Z,2.23
2018-09-08T18:32:42.684Z,1.90
2018-09-08T18:35:07.030Z,1.60
2018-09-08T18:37:30.878Z,1.50
2018-09-08T18:39:54.854Z,2.10
2018-09-08T18:42:19.077Z,2.00
2018-09-08T18:44:43.001Z,2.20
2018-09-08T18:47:06.943Z,2.07
2018-09-08T18:49:30.854Z,1.97
2018-09-08T18:51:54.793Z,2.03
2018-09-08T18:54:18.663Z,1.50
2018-09-08T18:56:42.568Z,1.87
2018-09-08T18:59:06.534Z,2.10
2018-09-08T19:01:30.418Z,1.90
2018-09-08T19:03:54.597Z,2.30
2018-09-08T19:06:18.526Z,2.60
2018-09-08T19:08:43.118Z,2.30
2018-09-08T19:11:07.182Z,2.00
2018-09-08T19:13:31.064Z,1.87
2018-09-08T19:15:54.978Z,2.50
2018-09-08T19:18:18.951Z,1.93
2018-09-08T19:20:42.845Z,2.00
2018-09-08T19:23:07.272Z,1.90
2018-09-08T19:25:31.171Z,1.63
2018-09-08T19:27:54.109Z,1.60
2018-09-08T19:30:17.857Z,1.60
2018-09-08T19:32:41.746Z,1.80
2018-09-08T19:35:11.032Z,2.30
2018-09-08T19:37:36.118Z,2.03
2018-09-08T19:40:00.518Z,1.60
2018-09-08T19:42:27.277Z,1.80
2018-09-08T19:44:51.804Z,1.70
2018-09-08T19:47:21.028Z,1.70
2018-09-08T19:49:45.097Z,2.27
2018-09-08T19:52:13.445Z,1.67
2018-09-08T19:54:37.441Z,2.03
2018-09-08T19:57:06.934Z,1.50
2018-09-08T19:59:30.849Z,1.90
2018-09-08T20:01:54.889Z,1.77
2018-09-08T20:04:19.123Z,2.07
2018-09-08T20:06:43.213Z,1.77
2018-09-08T20:09:07.173Z,2.10
2018-09-08T20:11:31.083Z,1.67
2018-09-08T20:13:55.006Z,1.70
2018-09-08T20:16:18.910Z,1.93
2018-09-08T20:18:42.803Z,1.77
2018-09-08T20:21:06.866Z,1.80
2018-09-08T20:23:30.773Z,1.80
2018-09-08T20:25:54.770Z,1.60
2018-09-08T20:28:18.652Z,2.03
2018-09-08T20:30:43.135Z,2.27
2018-09-08T20:33:07.024Z,2.03
2018-09-08T20:35:30.897Z,2.27
2018-09-08T20:37:54.805Z,2.20
2018-09-08T20:40:18.836Z,2.00
2018-09-08T20:42:42.704Z,2.10
2018-09-08T20:45:06.977Z,2.00
2018-09-08T20:47:30.876Z,2.27
2018-09-08T20:49:54.834Z,2.57
2018-09-08T20:52:18.718Z,2.37
2018-09-08T20:54:42.601Z,2.27
2018-09-08T20:57:06.499Z,2.00
2018-09-08T20:59:30.386Z,2.07
2018-09-08T21:01:54.269Z,1.97
2018-09-08T21:04:19.325Z,2.10
2018-09-08T21:06:43.295Z,2.20
2018-09-08T21:09:07.147Z,2.40
2018-09-08T21:11:31.031Z,2.00
2018-09-08T21:13:54.921Z,2.13
2018-09-08T21:16:18.896Z,2.10
2018-09-08T21:18:42.723Z,2.20
2018-09-08T21:21:06.781Z,2.20
2018-09-08T21:23:30.699Z,2.30
2018-09-08T21:25:54.544Z,2.40
2018-09-08T21:28:18.381Z,2.30
2018-09-08T21:30:42.235Z,2.00
2018-09-08T21:33:06.117Z,2.70
2018-09-08T21:35:29.972Z,2.73
2018-09-08T21:37:53.848Z,2.70
2018-09-08T21:40:19.228Z,2.57
2018-09-08T21:42:43.058Z,2.23
2018-09-08T21:45:06.922Z,2.30
2018-09-08T21:47:30.803Z,2.13
2018-09-08T21:49:54.700Z,2.43
2018-09-08T21:52:18.654Z,2.33
2018-09-08T21:54:42.485Z,2.40
2018-09-08T21:57:06.330Z,2.10
2018-09-08T21:59:30.196Z,2.40
2018-09-08T22:01:54.036Z,2.40
2018-09-08T22:04:18.007Z,2.33
2018-09-08T22:06:41.891Z,2.53
2018-09-08T22:09:08.296Z,2.50
2018-09-08T22:11:32.189Z,2.60
2018-09-08T22:13:56.014Z,2.47
2018-09-08T22:16:19.864Z,2.20
2018-09-08T22:18:43.790Z,2.53
2018-09-08T22:21:07.658Z,2.70
2018-09-08T22:23:31.472Z,2.60
2018-09-08T22:25:55.571Z,2.80
2018-09-08T22:28:19.442Z,3.00
2018-09-08T22:30:43.505Z,2.97
2018-09-08T22:33:07.401Z,3.03
2018-09-08T22:35:31.210Z,2.60
2018-09-08T22:37:55.215Z,2.40
2018-09-08T22:40:19.102Z,2.43
2018-09-08T22:42:42.963Z,2.73
2018-09-08T22:45:06.821Z,2.47
2018-09-08T22:47:30.672Z,2.30
2018-09-08T22:49:54.620Z,2.60
2018-09-08T22:52:18.456Z,2.40
2018-09-08T22:54:42.299Z,2.77
2018-09-08T22:57:06.224Z,2.63
2018-09-08T22:59:30.084Z,2.20
2018-09-08T23:01:53.991Z,2.20
2018-09-08T23:04:17.840Z,2.10
2018-09-08T23:06:41.687Z,2.07
2018-09-08T23:09:06.686Z,2.23
2018-09-08T23:11:30.520Z,1.93
2018-09-08T23:13:54.422Z,2.30
2018-09-08T23:16:18.261Z,2.23
2018-09-08T23:18:42.107Z,1.80
2018-09-08T23:21:06.166Z,2.10
2018-09-08T23:23:29.988Z,2.03
2018-09-08T23:25:54.933Z,1.90
2018-09-08T23:28:18.779Z,1.60
2018-09-08T23:30:42.657Z,1.97
2018-09-08T23:33:06.548Z,1.93
2018-09-08T23:35:30.371Z,1.90
2018-09-08T23:37:54.246Z,2.47
2018-09-08T23:40:18.094Z,1.87
2018-09-08T23:42:41.946Z,1.90
2018-09-08T23:45:05.828Z,1.83
2018-09-08T23:47:29.621Z,2.20
2018-09-08T23:49:53.679Z,2.10
2018-09-08T23:52:17.499Z,2.27
2018-09-08T23:54:41.339Z,2.10
2018-09-08T23:57:05.479Z,1.77
2018-09-08T23:59:29.639Z,1.80
